Time;durP1;ratioP1;P1;durP2;ratioP2;P2;SDS_P1;SDS_P2;PMS_P1;PMS_P2;Temp;Humidity;BMP_temperature;BMP_pressure;BME280_temperature;BME280_humidity;BME280_pressure;Samples;Min_cycle;Max_cycle;Signal;HPM_P1;HPM_P2
2023/04/08 00:00:23;;;;;;;9.05;5.50;;;8.10;99.90;;;;;;5039321;28;20029;-43
2023/04/08 00:02:48;;;;;;;6.57;5.30;;;8.10;99.90;;;;;;5040151;28;20086;-43
2023/04/08 00:05:14;;;;;;;19.60;5.80;;;8.10;99.90;;;;;;5039632;28;20110;-44
2023/04/08 00:07:40;;;;;;;31.17;6.20;;;8.00;99.90;;;;;;5039910;28;20025;-44
2023/04/08 00:10:06;;;;;;;20.48;5.38;;;8.00;99.90;;;;;;5039706;28;20464;-43
2023/04/08 00:12:32;;;;;;;28.27;5.45;;;8.00;99.90;;;;;;5039199;28;20039;-42
2023/04/08 00:14:57;;;;;;;26.77;5.38;;;8.10;99.90;;;;;;5040169;28;20021;-43
2023/04/08 00:17:23;;;;;;;7.20;5.13;;;8.10;99.90;;;;;;5040740;28;20060;-43
2023/04/08 00:19:48;;;;;;;10.63;5.05;;;8.00;99.90;;;;;;5042758;28;20020;-43
2023/04/08 00:22:14;;;;;;;9.45;4.88;;;8.00;99.90;;;;;;5044461;28;20048;-44
2023/04/08 00:24:40;;;;;;;7.82;5.40;;;8.00;99.90;;;;;;5043228;28;20029;-44
2023/04/08 00:27:05;;;;;;;6.88;5.68;;;7.90;99.90;;;;;;5043201;28;20025;-44
2023/04/08 00:29:31;;;;;;;5.90;5.30;;;7.90;99.90;;;;;;5043275;28;20035;-43
2023/04/08 00:31:56;;;;;;;5.85;5.25;;;7.90;99.90;;;;;;5044042;28;20025;-43
2023/04/08 00:34:22;;;;;;;5.50;5.00;;;7.80;99.90;;;;;;5042761;28;20024;-43
2023/04/08 00:36:48;;;;;;;5.90;5.30;;;7.80;99.90;;;;;;5042988;28;20588;-43
2023/04/08 00:39:14;;;;;;;6.22;5.40;;;7.70;99.90;;;;;;5043658;28;20437;-44
2023/04/08 00:41:40;;;;;;;6.20;5.60;;;7.70;99.90;;;;;;5042862;28;20017;-44
2023/04/08 00:44:05;;;;;;;5.47;4.88;;;7.70;99.90;;;;;;5043443;28;20029;-44
2023/04/08 00:46:38;;;;;;;5.82;5.18;;;7.60;99.90;;;;;;5043253;28;20045;-44
2023/04/08 00:49:06;;;;;;;5.53;5.03;;;7.60;99.90;;;;;;5041877;28;20059;-42
2023/04/08 00:51:31;;;;;;;5.60;5.00;;;7.50;99.90;;;;;;5041637;28;20542;-44
2023/04/08 00:53:59;;;;;;;5.93;5.32;;;7.40;99.90;;;;;;5042886;28;20067;-44
2023/04/08 00:56:26;;;;;;;5.55;5.03;;;7.40;99.90;;;;;;5040746;28;20090;-43
2023/04/08 00:58:54;;;;;;;5.38;4.80;;;7.40;99.90;;;;;;5042031;28;20049;-44
2023/04/08 01:01:38;;;;;;;5.75;5.15;;;7.30;99.90;;;;;;5041465;28;20086;-44
2023/04/08 01:04:13;;;;;;;5.47;4.93;;;7.30;99.90;;;;;;5022221;28;20056;-43
2023/04/08 01:06:41;;;;;;;5.70;5.15;;;7.30;99.90;;;;;;5037036;28;20063;-42
2023/04/08 01:09:09;;;;;;;4.97;4.47;;;7.20;99.90;;;;;;5041061;28;20162;-43
2023/04/08 01:11:37;;;;;;;5.68;5.18;;;7.20;99.90;;;;;;5040964;28;20419;-43
2023/04/08 01:14:06;;;;;;;5.43;4.93;;;7.20;99.90;;;;;;5041558;28;20082;-43
2023/04/08 01:16:33;;;;;;;6.68;4.47;;;7.20;99.90;;;;;;5040541;28;20045;-43
2023/04/08 01:18:59;;;;;;;4.38;3.97;;;7.20;99.90;;;;;;5041138;28;20759;-43
2023/04/08 01:21:27;;;;;;;5.75;4.15;;;7.20;99.90;;;;;;5040470;28;20033;-44
2023/04/08 01:24:07;;;;;;;7.63;5.10;;;7.20;99.90;;;;;;5040102;28;20033;-43
2023/04/08 01:26:34;;;;;;;8.85;5.32;;;7.20;99.90;;;;;;5040833;28;20477;-44
2023/04/08 01:29:02;;;;;;;9.57;5.00;;;7.10;99.90;;;;;;5041518;28;20028;-43
2023/04/08 01:31:29;;;;;;;6.22;5.35;;;7.10;99.90;;;;;;5040741;28;20757;-42
2023/04/08 01:33:56;;;;;;;9.10;5.15;;;7.00;99.90;;;;;;5041584;28;20167;-43
2023/04/08 01:36:23;;;;;;;8.05;5.53;;;7.00;99.90;;;;;;5040770;28;20468;-42
2023/04/08 01:38:49;;;;;;;8.43;4.68;;;6.90;99.90;;;;;;5041149;28;20120;-43
2023/04/08 01:41:17;;;;;;;5.68;4.57;;;6.90;99.90;;;;;;5040979;28;20070;-43
2023/04/08 01:43:46;;;;;;;5.28;4.78;;;6.80;99.90;;;;;;5040020;28;20388;-43
2023/04/08 01:46:14;;;;;;;4.90;4.40;;;6.80;99.90;;;;;;5005447;28;1030134;-43
2023/04/08 01:48:40;;;;;;;4.97;4.57;;;6.80;99.90;;;;;;5042085;28;20152;-43
2023/04/08 01:51:06;;;;;;;5.57;4.28;;;6.70;99.90;;;;;;5041198;28;20033;-44
2023/04/08 01:53:32;;;;;;;4.95;4.47;;;6.70;99.90;;;;;;5041423;28;20123;-44
2023/04/08 01:56:05;;;;;;;4.72;4.32;;;6.60;99.90;;;;;;5041909;28;20092;-43
2023/04/08 01:58:37;;;;;;;5.65;4.82;;;6.50;99.90;;;;;;5040639;28;20037;-44
2023/04/08 02:01:05;;;;;;;4.50;4.10;;;6.40;99.90;;;;;;5041945;28;20401;-43
2023/04/08 02:03:31;;;;;;;4.45;4.05;;;6.40;99.90;;;;;;5041348;28;20033;-43
2023/04/08 02:05:57;;;;;;;4.95;4.55;;;6.30;99.90;;;;;;5040440;28;20033;-43
2023/04/08 02:08:22;;;;;;;6.35;4.50;;;6.30;99.90;;;;;;5040929;28;20052;-42
2023/04/08 02:10:48;;;;;;;4.93;4.50;;;6.20;99.90;;;;;;5041211;28;20473;-43
2023/04/08 02:13:13;;;;;;;4.88;4.47;;;6.10;99.90;;;;;;5040681;28;20029;-43
2023/04/08 02:15:45;;;;;;;5.40;4.50;;;6.00;99.90;;;;;;5040791;28;20124;-43
2023/04/08 02:18:15;;;;;;;5.50;4.82;;;6.00;99.90;;;;;;5041678;28;20024;-43
2023/04/08 02:20:46;;;;;;;4.88;4.47;;;5.90;99.90;;;;;;5040703;28;20035;-43
2023/04/08 02:23:18;;;;;;;5.35;4.85;;;5.80;99.90;;;;;;5041786;28;20032;-43
2023/04/08 02:25:45;;;;;;;4.93;4.53;;;5.80;99.90;;;;;;5041285;28;20056;-43
2023/04/08 02:28:11;;;;;;;5.25;4.75;;;5.70;99.90;;;;;;5041664;28;20025;-43
2023/04/08 02:30:41;;;;;;;4.70;4.30;;;5.70;99.90;;;;;;5041844;28;20101;-43
2023/04/08 02:33:08;;;;;;;5.30;4.90;;;5.60;99.90;;;;;;5040798;28;20021;-44
2023/04/08 02:35:35;;;;;;;4.88;4.43;;;5.50;99.90;;;;;;5041485;28;20029;-43
2023/04/08 02:38:04;;;;;;;5.20;4.72;;;5.50;99.90;;;;;;5041366;28;20078;-42
2023/04/08 02:40:31;;;;;;;6.28;4.63;;;5.50;99.90;;;;;;5036449;28;20036;-43
2023/04/08 02:42:57;;;;;;;6.93;5.15;;;5.40;99.90;;;;;;5041921;28;20036;-43
2023/04/08 02:45:31;;;;;;;7.43;5.40;;;5.40;99.90;;;;;;5041112;28;20028;-44
2023/04/08 02:47:58;;;;;;;6.05;5.45;;;5.40;99.90;;;;;;5040563;28;20048;-44
2023/04/08 02:50:23;;;;;;;5.70;5.20;;;5.40;99.90;;;;;;5040976;28;20059;-43
2023/04/08 02:52:49;;;;;;;5.15;4.50;;;5.40;99.90;;;;;;5041853;28;20033;-43
2023/04/08 02:55:14;;;;;;;11.20;5.15;;;5.30;99.90;;;;;;5040205;28;20071;-44
2023/04/08 02:57:41;;;;;;;6.22;4.72;;;5.30;99.90;;;;;;5040341;28;20025;-44
2023/04/08 03:00:08;;;;;;;5.93;4.68;;;5.30;99.90;;;;;;5040550;28;20139;-43
2023/04/08 03:02:33;;;;;;;5.05;4.55;;;5.30;99.90;;;;;;5039291;28;20115;-43
2023/04/08 03:04:59;;;;;;;7.13;4.50;;;5.20;99.90;;;;;;5039913;28;20051;-44
2023/04/08 03:07:24;;;;;;;5.30;4.32;;;5.20;99.90;;;;;;5041011;28;20032;-44
2023/04/08 03:09:50;;;;;;;6.40;5.40;;;5.10;99.90;;;;;;5039483;28;20025;-41
2023/04/08 03:12:16;;;;;;;5.50;5.00;;;5.10;99.90;;;;;;5040647;28;20043;-43
2023/04/08 03:14:41;;;;;;;9.20;5.82;;;5.00;99.90;;;;;;5040239;28;20060;-43
2023/04/08 03:17:07;;;;;;;6.55;5.07;;;5.00;99.90;;;;;;5039634;28;20052;-44
2023/04/08 03:19:32;;;;;;;5.88;5.28;;;4.90;99.90;;;;;;5040242;28;20029;-44
2023/04/08 03:21:58;;;;;;;6.13;5.53;;;4.90;99.90;;;;;;5039835;28;20037;-43
2023/04/08 03:24:24;;;;;;;5.72;5.13;;;4.90;99.90;;;;;;5040139;28;20029;-43
2023/04/08 03:26:49;;;;;;;5.82;5.25;;;4.80;99.90;;;;;;5040133;28;20087;-44
2023/04/08 03:29:15;;;;;;;5.82;5.32;;;4.80;99.90;;;;;;5040634;28;20037;-44
2023/04/08 03:31:41;;;;;;;4.95;4.43;;;4.80;99.90;;;;;;5040715;28;20536;-44
2023/04/08 03:34:06;;;;;;;5.30;4.80;;;4.80;99.90;;;;;;5040339;28;20033;-44
2023/04/08 03:36:32;;;;;;;5.68;5.18;;;4.80;99.90;;;;;;5039058;28;20053;-43
2023/04/08 03:38:57;;;;;;;5.40;4.90;;;4.80;99.90;;;;;;5040549;28;20044;-43
2023/04/08 03:41:23;;;;;;;5.75;5.25;;;4.80;99.90;;;;;;5040341;28;20021;-44
2023/04/08 03:43:48;;;;;;;5.65;5.15;;;4.80;99.90;;;;;;5039671;28;20048;-42
2023/04/08 03:46:14;;;;;;;6.32;5.72;;;4.80;99.90;;;;;;5039627;28;20051;-42
2023/04/08 03:48:39;;;;;;;6.88;5.40;;;4.70;99.90;;;;;;5040052;28;20202;-43
2023/04/08 03:51:05;;;;;;;5.75;4.85;;;4.70;99.90;;;;;;5039381;28;20029;-43
2023/04/08 03:53:30;;;;;;;5.95;5.43;;;4.70;99.90;;;;;;5043283;28;20500;-44
2023/04/08 03:55:56;;;;;;;6.32;5.60;;;4.70;99.90;;;;;;5044160;28;20048;-44
2023/04/08 03:58:22;;;;;;;6.25;5.65;;;4.70;99.90;;;;;;5043722;28;20032;-43
2023/04/08 04:00:48;;;;;;;7.10;6.30;;;4.70;99.90;;;;;;5044570;28;20029;-44
2023/04/08 04:03:13;;;;;;;6.47;5.88;;;4.70;99.90;;;;;;5044727;28;20021;-44
2023/04/08 04:05:39;;;;;;;7.65;6.90;;;4.60;99.90;;;;;;5043500;28;20087;-43
2023/04/08 04:08:05;;;;;;;8.55;6.80;;;4.60;99.90;;;;;;5043650;28;20029;-43
2023/04/08 04:10:31;;;;;;;7.10;6.32;;;4.50;99.90;;;;;;5044060;28;20021;-43
2023/04/08 04:12:57;;;;;;;7.18;6.47;;;4.50;99.90;;;;;;5043402;28;20035;-43
2023/04/08 04:15:22;;;;;;;7.47;6.68;;;4.50;99.90;;;;;;5043564;28;20124;-43
2023/04/08 04:17:51;;;;;;;7.10;6.40;;;4.40;99.90;;;;;;5043371;28;20052;-44
2023/04/08 04:20:17;;;;;;;7.70;6.88;;;4.40;99.90;;;;;;5042793;28;20543;-43
2023/04/08 04:22:43;;;;;;;8.52;6.97;;;4.30;99.90;;;;;;5043475;28;20039;-44
2023/04/08 04:25:08;;;;;;;8.65;6.43;;;4.30;99.90;;;;;;5043996;28;20780;-44
2023/04/08 04:27:35;;;;;;;7.75;6.95;;;4.30;99.90;;;;;;5042916;28;20037;-43
2023/04/08 04:30:01;;;;;;;7.35;6.50;;;4.30;99.90;;;;;;5043510;28;20029;-43
2023/04/08 04:32:27;;;;;;;7.53;6.65;;;4.20;99.90;;;;;;5042575;28;20032;-42
2023/04/08 04:34:52;;;;;;;7.50;6.22;;;4.20;99.90;;;;;;5043105;28;20379;-44
2023/04/08 04:37:18;;;;;;;7.25;6.55;;;4.20;99.90;;;;;;5042697;28;20527;-43
2023/04/08 04:39:44;;;;;;;7.47;6.47;;;4.20;99.90;;;;;;5042699;28;20797;-43
2023/04/08 04:42:09;;;;;;;8.38;6.97;;;4.20;99.90;;;;;;5043242;28;20502;-42
2023/04/08 04:44:35;;;;;;;8.65;7.28;;;4.10;99.90;;;;;;5043314;28;20025;-43
2023/04/08 04:47:01;;;;;;;8.52;7.15;;;4.10;99.90;;;;;;5042621;28;20055;-42
2023/04/08 04:49:27;;;;;;;9.20;8.05;;;4.10;99.90;;;;;;5042828;28;20598;-43
2023/04/08 04:51:52;;;;;;;8.48;7.47;;;4.10;99.90;;;;;;5043578;28;20033;-43
2023/04/08 04:54:18;;;;;;;9.00;7.40;;;4.10;99.90;;;;;;5043080;28;20890;-44
2023/04/08 04:56:43;;;;;;;8.73;7.82;;;4.10;99.90;;;;;;5042706;28;20048;-44
2023/04/08 04:59:09;;;;;;;8.65;7.65;;;4.10;99.90;;;;;;5042971;28;20029;-42
2023/04/08 05:01:35;;;;;;;8.95;7.88;;;4.10;99.90;;;;;;5042561;28;20128;-43
2023/04/08 05:04:00;;;;;;;8.65;7.72;;;4.10;99.90;;;;;;5042311;28;20032;-44
2023/04/08 05:06:26;;;;;;;9.60;8.48;;;4.10;99.90;;;;;;5042805;28;20025;-43
2023/04/08 05:08:52;;;;;;;9.48;7.88;;;4.10;99.90;;;;;;5041780;28;20467;-43
2023/04/08 05:11:17;;;;;;;9.35;7.93;;;4.10;99.90;;;;;;5042761;28;20787;-44
2023/04/08 05:13:43;;;;;;;8.75;7.85;;;4.10;99.90;;;;;;5042722;28;20029;-44
2023/04/08 05:16:09;;;;;;;10.70;8.85;;;4.10;99.90;;;;;;5042497;28;20043;-44
2023/04/08 05:18:35;;;;;;;9.95;8.25;;;4.10;99.90;;;;;;5042342;28;20025;-43
2023/04/08 05:21:01;;;;;;;9.45;8.35;;;4.10;99.90;;;;;;5042823;28;20025;-44
2023/04/08 05:23:27;;;;;;;10.88;8.75;;;4.20;99.90;;;;;;5041908;28;20041;-42
2023/04/08 05:25:52;;;;;;;10.90;8.57;;;4.10;99.90;;;;;;5042044;28;20033;-43
2023/04/08 05:28:18;;;;;;;10.07;8.63;;;4.20;99.90;;;;;;5042812;28;20037;-44
2023/04/08 05:30:51;;;;;;;9.90;8.27;;;4.20;99.90;;;;;;5041521;28;20040;-44
2023/04/08 05:33:17;;;;;;;9.07;8.18;;;4.20;99.90;;;;;;5042658;28;20558;-43
2023/04/08 05:35:43;;;;;;;8.82;7.60;;;4.20;99.90;;;;;;5040772;28;20036;-43
2023/04/08 05:38:08;;;;;;;9.07;8.18;;;4.30;99.90;;;;;;5042587;28;20068;-44
2023/04/08 05:40:34;;;;;;;10.18;8.55;;;4.30;99.90;;;;;;5042622;28;20078;-43
2023/04/08 05:43:00;;;;;;;9.30;7.82;;;4.30;99.90;;;;;;5041972;28;20021;-43
2023/04/08 05:45:27;;;;;;;8.75;7.85;;;4.30;99.90;;;;;;5042281;28;20103;-44
2023/04/08 05:47:52;;;;;;;9.65;7.95;;;4.30;99.90;;;;;;5042028;28;20053;-43
2023/04/08 05:50:18;;;;;;;8.95;7.57;;;4.30;99.90;;;;;;5041961;28;20540;-43
2023/04/08 05:52:44;;;;;;;9.10;8.05;;;4.30;99.90;;;;;;5041980;28;20040;-43
2023/04/08 05:55:10;;;;;;;8.57;7.63;;;4.40;99.90;;;;;;5041731;28;20037;-43
2023/04/08 05:57:36;;;;;;;11.23;7.50;;;4.40;99.90;;;;;;5041488;28;20041;-43
2023/04/08 06:00:07;;;;;;;9.20;7.60;;;4.40;99.90;;;;;;5041437;28;20031;-44
2023/04/08 06:02:33;;;;;;;8.00;7.20;;;4.40;99.90;;;;;;5042013;28;20032;-43
2023/04/08 06:04:59;;;;;;;9.40;8.07;;;4.40;99.90;;;;;;5041705;28;20036;-44
2023/04/08 06:07:24;;;;;;;8.82;7.43;;;4.40;99.90;;;;;;5041911;28;20029;-43
2023/04/08 06:09:50;;;;;;;8.82;7.45;;;4.50;99.90;;;;;;5041594;28;20028;-44
2023/04/08 06:12:15;;;;;;;8.75;7.68;;;4.50;99.90;;;;;;5040688;28;20021;-43
2023/04/08 06:14:41;;;;;;;9.98;8.48;;;4.50;99.90;;;;;;5040357;28;20041;-41
2023/04/08 06:17:06;;;;;;;9.82;8.57;;;4.50;99.90;;;;;;5041405;28;20049;-44
2023/04/08 06:19:32;;;;;;;9.02;7.88;;;4.60;99.90;;;;;;5041478;28;20033;-44
2023/04/08 06:21:58;;;;;;;10.70;8.20;;;4.60;99.90;;;;;;5040799;28;20074;-45
2023/04/08 06:24:26;;;;;;;11.73;8.07;;;4.60;99.90;;;;;;5041889;28;20087;-44
2023/04/08 06:26:52;;;;;;;10.40;8.77;;;4.70;99.90;;;;;;5040531;28;20028;-43
2023/04/08 06:29:18;;;;;;;9.32;7.95;;;4.70;99.90;;;;;;5041953;28;20033;-43
2023/04/08 06:31:43;;;;;;;9.20;8.18;;;4.80;99.90;;;;;;5040857;28;20448;-43
2023/04/08 06:34:09;;;;;;;8.73;7.65;;;4.80;99.90;;;;;;5040872;28;20021;-44
2023/04/08 06:36:35;;;;;;;9.18;7.80;;;4.90;99.90;;;;;;5040298;28;20723;-43
2023/04/08 06:39:01;;;;;;;9.77;7.60;;;5.00;99.90;;;;;;5040604;28;20033;-44
2023/04/08 06:41:26;;;;;;;9.70;7.80;;;5.00;99.90;;;;;;5041510;28;20038;-43
2023/04/08 06:43:52;;;;;;;8.45;7.55;;;5.00;99.90;;;;;;5040806;28;20075;-45
2023/04/08 06:46:17;;;;;;;10.57;8.15;;;5.10;99.90;;;;;;5040231;28;20495;-44
2023/04/08 06:48:43;;;;;;;12.05;10.07;;;5.10;99.90;;;;;;5041303;28;20567;-44
2023/04/08 06:51:08;;;;;;;11.02;9.23;;;5.20;99.90;;;;;;5041120;28;20021;-43
2023/04/08 06:53:34;;;;;;;12.93;9.60;;;5.20;99.90;;;;;;5040483;28;20491;-43
2023/04/08 06:56:00;;;;;;;10.05;8.73;;;5.30;99.90;;;;;;5040206;28;20033;-43
2023/04/08 06:58:26;;;;;;;14.00;9.95;;;5.30;99.90;;;;;;5040963;28;20025;-42
2023/04/08 07:00:53;;;;;;;10.77;9.50;;;5.40;99.90;;;;;;5040207;28;20033;-45
2023/04/08 07:03:19;;;;;;;10.98;9.35;;;5.40;99.90;;;;;;5040963;28;20025;-44
2023/04/08 07:05:44;;;;;;;10.68;9.27;;;5.50;99.90;;;;;;5040409;28;20079;-44
2023/04/08 07:08:10;;;;;;;10.43;9.20;;;5.50;99.90;;;;;;5040294;28;20056;-43
2023/04/08 07:10:36;;;;;;;10.10;8.02;;;5.60;99.90;;;;;;5040609;28;20028;-44
2023/04/08 07:13:01;;;;;;;9.38;8.05;;;5.60;99.90;;;;;;5040534;28;20032;-44
2023/04/08 07:15:27;;;;;;;9.50;7.53;;;5.70;99.90;;;;;;5040362;28;20033;-43
2023/04/08 07:17:55;;;;;;;8.10;7.30;;;5.80;99.90;;;;;;5039991;28;20028;-44
2023/04/08 07:20:24;;;;;;;8.38;7.47;;;5.80;99.90;;;;;;5040619;28;20500;-44
2023/04/08 07:22:50;;;;;;;8.38;7.47;;;5.80;99.90;;;;;;5039855;28;20021;-44
2023/04/08 07:25:16;;;;;;;7.05;6.07;;;5.90;99.90;;;;;;5040249;28;20430;-43
2023/04/08 07:27:42;;;;;;;7.18;6.20;;;6.00;99.90;;;;;;5040033;28;20484;-43
2023/04/08 07:30:07;;;;;;;7.00;6.30;;;6.00;99.90;;;;;;5039369;28;20070;-43
2023/04/08 07:32:36;;;;;;;7.72;6.43;;;6.10;99.90;;;;;;5040136;28;20804;-42
2023/04/08 07:35:01;;;;;;;7.43;6.10;;;6.20;99.90;;;;;;5039420;28;20024;-44
2023/04/08 07:37:27;;;;;;;7.47;6.47;;;6.20;99.90;;;;;;5039643;28;20908;-43
2023/04/08 07:39:53;;;;;;;7.78;6.97;;;6.30;99.90;;;;;;5040156;28;20025;-43
2023/04/08 07:42:18;;;;;;;7.13;6.32;;;6.30;99.90;;;;;;5039909;28;20094;-43
2023/04/08 07:44:47;;;;;;;6.95;6.10;;;6.40;99.90;;;;;;5039730;28;20808;-44
2023/04/08 07:47:13;;;;;;;8.05;6.88;;;6.50;99.90;;;;;;5040054;28;20492;-45
2023/04/08 07:49:41;;;;;;;8.85;6.53;;;6.50;99.90;;;;;;5039216;28;20246;-44
2023/04/08 07:52:06;;;;;;;7.55;6.45;;;6.60;99.90;;;;;;5039291;28;20708;-45
2023/04/08 07:54:35;;;;;;;6.78;6.07;;;6.70;99.90;;;;;;5039209;28;20033;-44
2023/04/08 07:57:01;;;;;;;7.53;6.20;;;6.80;99.90;;;;;;5039503;28;20041;-43
2023/04/08 07:59:27;;;;;;;7.13;6.43;;;6.80;99.90;;;;;;5039862;28;20025;-44
2023/04/08 08:01:53;;;;;;;7.50;6.22;;;6.90;99.90;;;;;;5039757;28;20029;-44
2023/04/08 08:04:18;;;;;;;7.80;6.63;;;7.00;99.90;;;;;;5039724;28;20491;-45
2023/04/08 08:06:45;;;;;;;6.78;6.07;;;7.00;99.90;;;;;;5039878;28;20815;-44
2023/04/08 08:09:10;;;;;;;7.13;6.43;;;7.00;99.90;;;;;;5039627;28;20563;-44
2023/04/08 08:11:36;;;;;;;6.65;5.75;;;7.10;99.90;;;;;;5038908;28;20494;-44
2023/04/08 08:14:03;;;;;;;6.47;5.80;;;7.10;99.90;;;;;;5039016;28;20036;-44
2023/04/08 08:16:29;;;;;;;6.20;5.60;;;7.20;99.90;;;;;;5039528;28;20071;-44
2023/04/08 08:18:54;;;;;;;7.25;5.88;;;7.20;99.90;;;;;;5039573;28;20017;-44
2023/04/08 08:21:20;;;;;;;6.93;6.03;;;7.30;99.90;;;;;;5039799;28;20306;-43
2023/04/08 08:23:46;;;;;;;6.80;6.10;;;7.30;99.90;;;;;;5040000;28;20472;-43
2023/04/08 08:26:11;;;;;;;6.35;5.65;;;7.40;99.90;;;;;;5039323;28;20036;-42
2023/04/08 08:28:38;;;;;;;6.57;5.90;;;7.40;99.90;;;;;;5039442;28;20025;-43
2023/04/08 08:31:04;;;;;;;7.57;6.03;;;7.50;99.90;;;;;;5039189;28;20158;-44
2023/04/08 08:33:31;;;;;;;7.50;6.60;;;7.60;99.90;;;;;;5039072;28;20072;-44
2023/04/08 08:35:59;;;;;;;6.35;5.75;;;7.60;99.90;;;;;;5039285;28;20025;-43
2023/04/08 08:38:25;;;;;;;7.47;6.03;;;7.70;99.90;;;;;;5040368;28;20025;-42
2023/04/08 08:40:57;;;;;;;6.80;5.53;;;7.80;99.90;;;;;;5042963;28;20629;-44
2023/04/08 08:43:24;;;;;;;6.57;5.87;;;7.80;99.90;;;;;;5042787;28;20061;-44
2023/04/08 08:45:50;;;;;;;6.93;6.07;;;7.90;99.90;;;;;;5041945;28;20272;-44
2023/04/08 08:48:16;;;;;;;6.93;5.97;;;8.00;99.90;;;;;;5043584;28;20045;-44
2023/04/08 08:50:42;;;;;;;6.43;5.68;;;8.00;99.90;;;;;;5042665;28;20117;-43
2023/04/08 08:53:07;;;;;;;7.72;6.72;;;8.10;99.90;;;;;;5042910;28;20024;-44
2023/04/08 08:55:33;;;;;;;6.53;5.85;;;8.20;99.90;;;;;;5043193;28;20435;-43
2023/04/08 08:58:00;;;;;;;6.22;5.60;;;8.30;99.90;;;;;;5043296;28;20369;-43
2023/04/08 09:00:37;;;;;;;6.28;5.50;;;8.30;99.90;;;;;;5042312;28;20106;-43
2023/04/08 09:03:15;;;;;;;5.95;5.45;;;8.40;99.90;;;;;;5042701;28;20678;-43
2023/04/08 09:05:50;;;;;;;6.03;5.43;;;8.40;99.90;;;;;;5042516;28;20036;-43
2023/04/08 09:08:25;;;;;;;6.15;5.55;;;8.40;99.90;;;;;;5042533;28;20029;-43
2023/04/08 09:10:52;;;;;;;7.28;6.53;;;8.50;99.90;;;;;;5042532;28;20055;-44
2023/04/08 09:13:18;;;;;;;8.05;6.82;;;8.60;99.90;;;;;;5042945;28;20024;-44
2023/04/08 09:16:06;;;;;;;6.97;6.18;;;8.60;99.90;;;;;;5041623;28;20477;-42
2023/04/08 09:18:32;;;;;;;7.35;6.20;;;8.80;99.90;;;;;;5042512;28;20021;-43
2023/04/08 09:21:02;;;;;;;9.38;7.88;;;8.80;99.90;;;;;;5042521;28;20040;-43
2023/04/08 09:23:39;;;;;;;8.18;7.22;;;8.90;99.90;;;;;;5042232;28;20062;-44
2023/04/08 09:26:09;;;;;;;8.93;8.00;;;9.00;99.90;;;;;;5042475;28;20270;-43
2023/04/08 09:28:35;;;;;;;12.93;9.43;;;9.10;99.90;;;;;;5041723;28;20051;-43
2023/04/08 09:31:16;;;;;;;11.88;9.57;;;9.10;99.90;;;;;;5042890;28;20155;-44
2023/04/08 09:33:42;;;;;;;11.23;9.65;;;9.20;99.90;;;;;;5042003;28;20090;-43
2023/04/08 09:36:07;;;;;;;10.85;9.75;;;9.20;99.90;;;;;;5041087;28;20037;-44
2023/04/08 09:38:36;;;;;;;10.27;8.45;;;9.30;99.90;;;;;;5041400;28;20025;-43
2023/04/08 09:41:06;;;;;;;8.32;7.40;;;9.30;99.90;;;;;;5041720;28;20072;-43
2023/04/08 09:43:35;;;;;;;8.73;7.80;;;9.30;99.90;;;;;;5041474;28;20113;-43
2023/04/08 09:46:04;;;;;;;9.88;7.65;;;9.30;99.90;;;;;;5042003;28;20114;-43
2023/04/08 09:48:37;;;;;;;9.02;7.72;;;9.40;99.90;;;;;;5041110;28;20048;-44
2023/04/08 09:51:03;;;;;;;9.50;7.78;;;9.40;99.90;;;;;;5039450;28;20088;-43
2023/04/08 09:53:40;;;;;;;9.50;8.18;;;9.50;99.90;;;;;;5041310;28;20025;-43
2023/04/08 09:56:11;;;;;;;8.45;7.50;;;9.50;99.90;;;;;;5040561;28;20029;-43
2023/04/08 09:59:08;;;;;;;7.50;6.70;;;9.60;99.90;;;;;;5041962;28;20036;-44
2023/04/08 10:01:39;;;;;;;9.65;8.00;;;9.70;99.90;;;;;;5041508;28;20476;-43
2023/04/08 10:04:08;;;;;;;8.90;7.70;;;9.90;99.90;;;;;;5040380;28;20056;-43
2023/04/08 10:06:36;;;;;;;7.85;7.05;;;9.90;99.90;;;;;;5041849;28;20431;-44
2023/04/08 10:09:03;;;;;;;7.63;6.82;;;10.00;99.90;;;;;;5041138;28;20025;-43
2023/04/08 10:11:29;;;;;;;7.10;6.40;;;10.00;99.90;;;;;;5041050;28;20021;-44
2023/04/08 10:13:55;;;;;;;7.93;7.10;;;10.10;99.90;;;;;;5041744;28;20020;-43
2023/04/08 10:16:26;;;;;;;7.70;6.57;;;10.20;99.90;;;;;;5041285;28;20044;-43
2023/04/08 10:18:56;;;;;;;6.97;6.28;;;10.30;99.90;;;;;;5040595;28;20454;-44
2023/04/08 10:21:32;;;;;;;7.38;6.68;;;10.30;99.90;;;;;;5041835;28;20033;-44
2023/04/08 10:23:59;;;;;;;8.68;7.70;;;10.40;99.90;;;;;;5040728;28;20028;-44
2023/04/08 10:26:33;;;;;;;8.82;7.93;;;10.50;99.90;;;;;;5041309;28;20029;-44
2023/04/08 10:29:17;;;;;;;8.40;7.13;;;10.60;99.90;;;;;;5041911;28;20412;-44
2023/04/08 10:31:47;;;;;;;8.60;7.65;;;10.70;99.90;;;;;;5029922;28;20221;-43
2023/04/08 10:34:21;;;;;;;9.68;8.00;;;10.90;99.90;;;;;;5041165;28;20673;-44
2023/04/08 10:36:47;;;;;;;9.82;7.60;;;11.00;99.90;;;;;;5041142;28;20102;-44
2023/04/08 10:39:14;;;;;;;11.52;8.20;;;11.20;99.90;;;;;;5040588;28;20788;-43
2023/04/08 10:41:47;;;;;;;10.57;7.97;;;11.40;99.90;;;;;;5040740;28;20029;-44
2023/04/08 10:44:24;;;;;;;7.75;6.95;;;11.50;99.90;;;;;;5040913;28;20025;-44
2023/04/08 10:46:51;;;;;;;8.55;6.90;;;11.70;99.90;;;;;;5038369;28;20291;-44
2023/04/08 10:49:17;;;;;;;7.65;6.85;;;11.80;99.90;;;;;;5040758;28;20024;-44
2023/04/08 10:51:44;;;;;;;8.13;7.00;;;12.00;99.90;;;;;;5041071;28;20119;-44
2023/04/08 10:54:12;;;;;;;8.02;7.13;;;12.10;99.90;;;;;;5040518;28;20039;-44
2023/04/08 10:56:48;;;;;;;9.90;8.10;;;12.30;99.90;;;;;;5041207;28;20037;-43
2023/04/08 10:59:15;;;;;;;7.10;6.40;;;12.50;99.90;;;;;;5041041;28;20029;-43
2023/04/08 11:01:43;;;;;;;10.38;7.50;;;12.60;99.90;;;;;;5039843;28;20612;-43
2023/04/08 11:04:22;;;;;;;9.95;7.43;;;12.80;99.90;;;;;;5040491;28;20384;-43
2023/04/08 11:06:47;;;;;;;8.95;7.05;;;12.90;99.90;;;;;;5040155;28;20085;-43
2023/04/08 11:09:15;;;;;;;7.57;6.43;;;12.90;99.90;;;;;;5041211;28;20025;-45
2023/04/08 11:11:42;;;;;;;9.23;6.45;;;13.00;99.90;;;;;;5041190;28;20350;-43
2023/04/08 11:14:07;;;;;;;10.30;6.40;;;13.10;99.90;;;;;;5039756;28;20029;-44
2023/04/08 11:16:34;;;;;;;8.85;7.82;;;13.20;99.90;;;;;;5039797;28;20086;-43
2023/04/08 11:19:05;;;;;;;8.57;7.60;;;13.20;99.90;;;;;;5040234;28;20025;-43
2023/04/08 11:21:31;;;;;;;9.30;6.22;;;13.20;99.90;;;;;;5039263;28;20083;-43
2023/04/08 11:23:57;;;;;;;7.85;6.80;;;13.20;99.90;;;;;;5040402;28;20028;-43
2023/04/08 11:26:24;;;;;;;10.25;6.82;;;13.20;99.90;;;;;;5040367;28;20025;-43
2023/04/08 11:28:50;;;;;;;8.20;7.15;;;13.10;99.90;;;;;;5039898;28;20029;-44
2023/04/08 11:31:17;;;;;;;9.50;6.97;;;13.10;99.90;;;;;;5039831;28;20033;-43
2023/04/08 11:33:49;;;;;;;8.43;6.40;;;13.20;99.90;;;;;;5029190;28;20025;-44
2023/04/08 11:36:17;;;;;;;8.95;7.43;;;13.20;99.90;;;;;;5039635;28;20055;-43
2023/04/08 11:38:43;;;;;;;8.98;7.10;;;13.30;99.90;;;;;;5040068;28;20025;-45
2023/04/08 11:41:10;;;;;;;10.57;7.45;;;13.40;99.90;;;;;;5039967;28;20389;-44
2023/04/08 11:43:36;;;;;;;9.60;7.18;;;13.40;99.90;;;;;;5040283;28;20033;-44
2023/04/08 11:46:11;;;;;;;7.93;6.45;;;13.40;99.20;;;;;;5040668;28;20027;-43
2023/04/08 11:48:38;;;;;;;9.30;6.63;;;13.50;99.40;;;;;;5039426;28;20598;-44
2023/04/08 11:51:08;;;;;;;7.70;6.20;;;13.60;99.50;;;;;;5040499;28;20044;-44
2023/04/08 11:53:35;;;;;;;7.68;5.78;;;13.70;99.30;;;;;;5039813;28;20043;-44
2023/04/08 11:56:22;;;;;;;6.45;5.72;;;13.80;99.50;;;;;;5039124;28;20864;-44
2023/04/08 11:58:48;;;;;;;7.97;6.05;;;13.90;99.60;;;;;;5039864;28;20055;-44
2023/04/08 12:01:14;;;;;;;7.10;5.68;;;13.90;98.90;;;;;;5040370;28;20472;-44
2023/04/08 12:03:53;;;;;;;7.00;5.03;;;13.90;97.70;;;;;;5038547;28;20043;-43
2023/04/08 12:06:18;;;;;;;7.22;4.93;;;13.80;96.80;;;;;;5020343;28;20025;-43
2023/04/08 12:08:44;;;;;;;7.95;6.10;;;13.80;96.50;;;;;;5035382;28;20035;-44
2023/04/08 12:11:11;;;;;;;8.00;5.05;;;13.80;95.90;;;;;;5038925;28;20028;-44
2023/04/08 12:13:36;;;;;;;6.70;5.50;;;13.70;95.70;;;;;;5040848;28;20029;-44
2023/04/08 12:16:02;;;;;;;5.68;4.55;;;13.90;95.90;;;;;;5043479;28;20044;-44
2023/04/08 12:18:27;;;;;;;5.32;4.78;;;13.90;95.70;;;;;;5042504;28;20174;-44
2023/04/08 12:20:53;;;;;;;6.60;5.55;;;13.90;95.80;;;;;;5043554;28;20716;-43
2023/04/08 12:23:19;;;;;;;7.35;5.80;;;14.00;95.50;;;;;;5043705;28;20029;-43
2023/04/08 12:25:44;;;;;;;6.68;5.72;;;14.00;95.40;;;;;;5042452;28;20067;-44
2023/04/08 12:28:11;;;;;;;6.47;5.25;;;14.10;95.60;;;;;;5043452;28;20823;-44
2023/04/08 12:30:37;;;;;;;6.28;5.68;;;14.00;95.90;;;;;;5041971;28;20033;-43
2023/04/08 12:33:02;;;;;;;5.97;5.38;;;14.00;96.10;;;;;;5043056;28;20024;-43
2023/04/08 12:35:28;;;;;;;7.07;6.18;;;13.90;96.40;;;;;;5043593;28;20021;-43
2023/04/08 12:37:53;;;;;;;5.95;5.35;;;13.80;96.10;;;;;;5042284;28;20067;-44
2023/04/08 12:40:19;;;;;;;6.70;5.50;;;13.70;96.10;;;;;;5042905;28;20100;-44
2023/04/08 12:42:45;;;;;;;5.68;4.90;;;13.60;96.00;;;;;;5043181;28;20025;-44
2023/04/08 12:45:10;;;;;;;6.63;5.30;;;13.60;96.00;;;;;;5041837;28;20602;-44
2023/04/08 12:47:36;;;;;;;6.15;5.05;;;13.60;96.00;;;;;;5043315;28;20041;-44
2023/04/08 12:50:02;;;;;;;5.35;4.80;;;13.70;95.80;;;;;;5042967;28;20072;-44
2023/04/08 12:52:27;;;;;;;5.47;4.28;;;13.80;94.90;;;;;;5042337;28;20392;-44